Borba, Brazil
Current Conditions -  °F | °C
As of 2:00 PM on Tuesday 21 Oct 2014 (Local Time) from SBMN Reporting Station
Thunderstorm Thunderstorm  
Wind Chill: 81°   Ceiling: 1200
Heat Index: 85°   Visibility: 2.5mi
Dew Point: 73°   Wind: 13mph
Humidity: 79%   Direction: 130°SE
Pressure: 29.83"   Gusts: 28mph
Location:  4.39°S, 59.59°W
Report Text: SBMN 211800Z 13011G24KT 4000 -TSRA BKN012 FEW025CB 27/23 Q1010
Loading
Personal Weather Stations






























Interactive Weather Map
Tropical Storm Tracking
New forecast layout! Learn more

10-Day Weather Forecast

Advertisements
Track Severe Weather on mobile